Fua'amotu (NFTF)

Aerodrome — Elev 126
Tonga
S021.14.16.800 W175.08.13.800
Loading chart...

Current Weather

NFTF 211800Z 04005KT 9999 FEW010 SCT016 BKN040 24/24 Q1017

Published 51 minutes ago

Airport Activity

Loading chart...
Loading chart...

Positions

CallsignRadio Name / Freq / Voice Room / TypeFrequencyVoice RoomType
NZZO_FSS Auckland Radio
128.900
nzzo_fss
128.900nzzo_fss
NSFA_CTR Faleolo Control
123.800
nsfa_ctr
123.800nsfa_ctr
NFTF_APP Fua'amotu Control
118.500
nftf_app
118.500nftf_app
NFTF_GND Fua'amotu Ground
121.900
nftf_gnd
121.900nftf_gnd
UNICOM NZZO UNICOM
122.800
unicom_nzzo
122.800unicom_nzzo